sensor_id;sensor_type;location;lat;lon;timestamp;P1;durP1;ratioP1;P2;durP2;ratioP2
92;SDS011;16232;48.800;9.002;2023-12-14T00:00:51;2.63;;;1.80;;
92;SDS011;16232;48.800;9.002;2023-12-14T00:03:18;5.20;;;2.63;;
92;SDS011;16232;48.800;9.002;2023-12-14T00:05:46;3.40;;;2.30;;
92;SDS011;16232;48.800;9.002;2023-12-14T00:08:15;3.93;;;2.30;;
92;SDS011;16232;48.800;9.002;2023-12-14T00:10:42;3.40;;;2.67;;
92;SDS011;16232;48.800;9.002;2023-12-14T00:13:10;2.87;;;2.67;;
92;SDS011;16232;48.800;9.002;2023-12-14T00:15:38;2.53;;;2.10;;
92;SDS011;16232;48.800;9.002;2023-12-14T00:18:05;5.70;;;2.70;;
92;SDS011;16232;48.800;9.002;2023-12-14T00:20:39;3.40;;;2.37;;
92;SDS011;16232;48.800;9.002;2023-12-14T00:23:07;3.27;;;2.30;;
92;SDS011;16232;48.800;9.002;2023-12-14T00:25:36;3.93;;;2.30;;
92;SDS011;16232;48.800;9.002;2023-12-14T00:28:03;4.43;;;2.80;;
92;SDS011;16232;48.800;9.002;2023-12-14T00:30:33;3.53;;;2.47;;
92;SDS011;16232;48.800;9.002;2023-12-14T00:33:01;3.43;;;2.40;;
92;SDS011;16232;48.800;9.002;2023-12-14T00:35:28;2.23;;;1.90;;
92;SDS011;16232;48.800;9.002;2023-12-14T00:37:56;2.60;;;2.13;;
92;SDS011;16232;48.800;9.002;2023-12-14T00:40:24;3.80;;;2.20;;
92;SDS011;16232;48.800;9.002;2023-12-14T00:42:56;3.70;;;2.33;;
92;SDS011;16232;48.800;9.002;2023-12-14T00:45:23;3.27;;;2.37;;
92;SDS011;16232;48.800;9.002;2023-12-14T00:47:51;3.87;;;2.40;;
92;SDS011;16232;48.800;9.002;2023-12-14T00:50:19;3.00;;;2.70;;
92;SDS011;16232;48.800;9.002;2023-12-14T00:52:46;3.37;;;3.07;;
92;SDS011;16232;48.800;9.002;2023-12-14T00:55:14;3.00;;;2.53;;
92;SDS011;16232;48.800;9.002;2023-12-14T00:57:42;3.60;;;2.23;;
92;SDS011;16232;48.800;9.002;2023-12-14T01:00:12;5.00;;;3.00;;
92;SDS011;16232;48.800;9.002;2023-12-14T01:02:39;3.80;;;2.77;;
92;SDS011;16232;48.800;9.002;2023-12-14T01:05:10;4.37;;;2.60;;
92;SDS011;16232;48.800;9.002;2023-12-14T01:07:38;6.57;;;3.47;;
92;SDS011;16232;48.800;9.002;2023-12-14T01:10:06;4.17;;;2.70;;
92;SDS011;16232;48.800;9.002;2023-12-14T01:12:33;4.07;;;2.80;;
92;SDS011;16232;48.800;9.002;2023-12-14T01:15:01;10.27;;;2.70;;
92;SDS011;16232;48.800;9.002;2023-12-14T01:17:30;3.77;;;2.57;;
92;SDS011;16232;48.800;9.002;2023-12-14T01:20:02;6.17;;;3.10;;
92;SDS011;16232;48.800;9.002;2023-12-14T01:22:31;4.03;;;2.97;;
92;SDS011;16232;48.800;9.002;2023-12-14T01:24:58;2.80;;;2.27;;
92;SDS011;16232;48.800;9.002;2023-12-14T01:27:26;2.77;;;2.40;;
92;SDS011;16232;48.800;9.002;2023-12-14T01:29:54;4.87;;;2.63;;
92;SDS011;16232;48.800;9.002;2023-12-14T01:32:21;3.27;;;2.90;;
92;SDS011;16232;48.800;9.002;2023-12-14T01:34:50;3.13;;;2.73;;
92;SDS011;16232;48.800;9.002;2023-12-14T01:37:18;6.77;;;4.23;;
92;SDS011;16232;48.800;9.002;2023-12-14T01:39:46;3.70;;;3.10;;
92;SDS011;16232;48.800;9.002;2023-12-14T01:42:13;4.30;;;3.00;;
92;SDS011;16232;48.800;9.002;2023-12-14T01:44:41;4.33;;;2.57;;
92;SDS011;16232;48.800;9.002;2023-12-14T01:47:08;4.00;;;2.53;;
92;SDS011;16232;48.800;9.002;2023-12-14T01:49:36;3.23;;;2.73;;
92;SDS011;16232;48.800;9.002;2023-12-14T01:52:05;4.90;;;3.47;;
92;SDS011;16232;48.800;9.002;2023-12-14T01:54:33;3.67;;;3.10;;
92;SDS011;16232;48.800;9.002;2023-12-14T01:57:00;4.30;;;2.97;;
92;SDS011;16232;48.800;9.002;2023-12-14T01:59:28;3.27;;;2.57;;
92;SDS011;16232;48.800;9.002;2023-12-14T02:01:55;4.50;;;2.47;;
92;SDS011;16232;48.800;9.002;2023-12-14T02:04:24;3.17;;;2.20;;
92;SDS011;16232;48.800;9.002;2023-12-14T02:06:52;8.00;;;3.70;;
92;SDS011;16232;48.800;9.002;2023-12-14T02:09:21;3.63;;;3.00;;
92;SDS011;16232;48.800;9.002;2023-12-14T02:11:50;5.43;;;3.00;;
92;SDS011;16232;48.800;9.002;2023-12-14T02:14:17;4.83;;;4.10;;
92;SDS011;16232;48.800;9.002;2023-12-14T02:16:45;4.03;;;2.93;;
92;SDS011;16232;48.800;9.002;2023-12-14T02:19:12;3.30;;;3.00;;
92;SDS011;16232;48.800;9.002;2023-12-14T02:21:40;2.53;;;2.33;;
92;SDS011;16232;48.800;9.002;2023-12-14T02:24:09;3.73;;;2.87;;
92;SDS011;16232;48.800;9.002;2023-12-14T02:26:36;5.90;;;2.60;;
92;SDS011;16232;48.800;9.002;2023-12-14T02:29:04;3.77;;;2.70;;
92;SDS011;16232;48.800;9.002;2023-12-14T02:31:31;2.43;;;2.23;;
92;SDS011;16232;48.800;9.002;2023-12-14T02:33:58;2.57;;;2.20;;
92;SDS011;16232;48.800;9.002;2023-12-14T02:36:26;5.60;;;2.67;;
92;SDS011;16232;48.800;9.002;2023-12-14T02:38:53;3.47;;;2.53;;
92;SDS011;16232;48.800;9.002;2023-12-14T02:41:22;3.00;;;2.23;;
92;SDS011;16232;48.800;9.002;2023-12-14T02:43:49;2.57;;;2.37;;
92;SDS011;16232;48.800;9.002;2023-12-14T02:46:17;2.97;;;2.27;;
92;SDS011;16232;48.800;9.002;2023-12-14T02:48:44;3.10;;;2.80;;
92;SDS011;16232;48.800;9.002;2023-12-14T02:51:12;3.27;;;2.80;;
92;SDS011;16232;48.800;9.002;2023-12-14T02:53:41;5.53;;;3.30;;
92;SDS011;16232;48.800;9.002;2023-12-14T02:56:09;3.43;;;2.80;;
92;SDS011;16232;48.800;9.002;2023-12-14T02:58:38;3.17;;;2.47;;
92;SDS011;16232;48.800;9.002;2023-12-14T03:01:05;3.10;;;2.67;;
92;SDS011;16232;48.800;9.002;2023-12-14T03:03:33;2.00;;;1.83;;
92;SDS011;16232;48.800;9.002;2023-12-14T03:06:00;1.70;;;1.60;;
92;SDS011;16232;48.800;9.002;2023-12-14T03:08:28;3.00;;;2.30;;
92;SDS011;16232;48.800;9.002;2023-12-14T03:10:55;2.97;;;2.50;;
92;SDS011;16232;48.800;9.002;2023-12-14T03:13:24;2.80;;;2.60;;
92;SDS011;16232;48.800;9.002;2023-12-14T03:15:52;8.23;;;3.33;;
92;SDS011;16232;48.800;9.002;2023-12-14T03:18:20;3.97;;;2.10;;
92;SDS011;16232;48.800;9.002;2023-12-14T03:20:47;4.20;;;2.90;;
92;SDS011;16232;48.800;9.002;2023-12-14T03:23:16;5.67;;;3.57;;
92;SDS011;16232;48.800;9.002;2023-12-14T03:25:43;3.60;;;2.67;;
92;SDS011;16232;48.800;9.002;2023-12-14T03:28:11;4.03;;;3.03;;
92;SDS011;16232;48.800;9.002;2023-12-14T03:30:38;4.30;;;3.00;;
92;SDS011;16232;48.800;9.002;2023-12-14T03:33:07;3.17;;;2.57;;
92;SDS011;16232;48.800;9.002;2023-12-14T03:35:34;3.13;;;2.70;;
92;SDS011;16232;48.800;9.002;2023-12-14T03:38:02;4.77;;;3.30;;
92;SDS011;16232;48.800;9.002;2023-12-14T03:40:29;3.60;;;2.80;;
92;SDS011;16232;48.800;9.002;2023-12-14T03:42:57;3.03;;;2.60;;
92;SDS011;16232;48.800;9.002;2023-12-14T03:45:24;3.53;;;2.40;;
92;SDS011;16232;48.800;9.002;2023-12-14T03:47:52;2.47;;;2.27;;
92;SDS011;16232;48.800;9.002;2023-12-14T03:50:20;3.57;;;2.50;;
92;SDS011;16232;48.800;9.002;2023-12-14T03:52:48;2.63;;;2.33;;
92;SDS011;16232;48.800;9.002;2023-12-14T03:55:15;3.50;;;2.50;;
92;SDS011;16232;48.800;9.002;2023-12-14T03:57:43;2.30;;;2.10;;
92;SDS011;16232;48.800;9.002;2023-12-14T04:00:11;3.83;;;2.60;;
92;SDS011;16232;48.800;9.002;2023-12-14T04:02:38;4.37;;;3.30;;
92;SDS011;16232;48.800;9.002;2023-12-14T04:05:06;3.77;;;3.10;;
92;SDS011;16232;48.800;9.002;2023-12-14T04:07:35;5.90;;;3.60;;
92;SDS011;16232;48.800;9.002;2023-12-14T04:10:06;4.53;;;2.80;;
92;SDS011;16232;48.800;9.002;2023-12-14T04:12:33;3.50;;;3.20;;
92;SDS011;16232;48.800;9.002;2023-12-14T04:15:01;3.33;;;3.03;;
92;SDS011;16232;48.800;9.002;2023-12-14T04:17:28;3.47;;;3.03;;
92;SDS011;16232;48.800;9.002;2023-12-14T04:19:56;4.47;;;2.97;;
92;SDS011;16232;48.800;9.002;2023-12-14T04:22:23;4.37;;;3.63;;
92;SDS011;16232;48.800;9.002;2023-12-14T04:24:52;3.77;;;3.07;;
92;SDS011;16232;48.800;9.002;2023-12-14T04:27:20;5.47;;;3.80;;
92;SDS011;16232;48.800;9.002;2023-12-14T04:29:49;4.47;;;3.27;;
92;SDS011;16232;48.800;9.002;2023-12-14T04:32:17;4.67;;;2.90;;
92;SDS011;16232;48.800;9.002;2023-12-14T04:34:44;4.10;;;3.53;;
92;SDS011;16232;48.800;9.002;2023-12-14T04:37:11;7.23;;;3.80;;
92;SDS011;16232;48.800;9.002;2023-12-14T04:39:39;7.43;;;4.53;;
92;SDS011;16232;48.800;9.002;2023-12-14T04:42:08;4.33;;;3.93;;
92;SDS011;16232;48.800;9.002;2023-12-14T04:44:35;5.30;;;4.60;;
92;SDS011;16232;48.800;9.002;2023-12-14T04:47:03;6.33;;;4.10;;
92;SDS011;16232;48.800;9.002;2023-12-14T04:49:30;7.23;;;5.00;;
92;SDS011;16232;48.800;9.002;2023-12-14T04:51:58;7.10;;;4.57;;
92;SDS011;16232;48.800;9.002;2023-12-14T04:54:25;6.00;;;3.83;;
92;SDS011;16232;48.800;9.002;2023-12-14T04:56:53;5.23;;;4.20;;
92;SDS011;16232;48.800;9.002;2023-12-14T04:59:21;6.13;;;3.80;;
92;SDS011;16232;48.800;9.002;2023-12-14T05:01:49;8.63;;;5.33;;
92;SDS011;16232;48.800;9.002;2023-12-14T05:04:16;6.57;;;4.37;;
92;SDS011;16232;48.800;9.002;2023-12-14T05:06:44;5.97;;;4.23;;
92;SDS011;16232;48.800;9.002;2023-12-14T05:09:11;10.37;;;5.33;;
92;SDS011;16232;48.800;9.002;2023-12-14T05:11:39;3.97;;;3.57;;
92;SDS011;16232;48.800;9.002;2023-12-14T05:14:06;6.67;;;5.23;;
92;SDS011;16232;48.800;9.002;2023-12-14T05:16:35;9.57;;;6.23;;
92;SDS011;16232;48.800;9.002;2023-12-14T05:19:03;6.20;;;4.90;;
92;SDS011;16232;48.800;9.002;2023-12-14T05:21:30;5.67;;;3.97;;
92;SDS011;16232;48.800;9.002;2023-12-14T05:23:58;4.73;;;3.70;;
92;SDS011;16232;48.800;9.002;2023-12-14T05:26:25;4.97;;;4.37;;
92;SDS011;16232;48.800;9.002;2023-12-14T05:28:52;5.07;;;4.57;;
92;SDS011;16232;48.800;9.002;2023-12-14T05:31:20;7.73;;;5.83;;
92;SDS011;16232;48.800;9.002;2023-12-14T05:33:49;7.43;;;6.47;;
92;SDS011;16232;48.800;9.002;2023-12-14T05:36:16;6.87;;;5.57;;
92;SDS011;16232;48.800;9.002;2023-12-14T05:38:44;9.30;;;5.90;;
92;SDS011;16232;48.800;9.002;2023-12-14T05:41:11;6.93;;;6.23;;
92;SDS011;16232;48.800;9.002;2023-12-14T05:43:39;12.60;;;8.00;;
92;SDS011;16232;48.800;9.002;2023-12-14T05:46:06;7.00;;;6.30;;
92;SDS011;16232;48.800;9.002;2023-12-14T05:48:34;7.90;;;6.33;;
92;SDS011;16232;48.800;9.002;2023-12-14T05:51:03;8.47;;;6.60;;
92;SDS011;16232;48.800;9.002;2023-12-14T05:53:31;8.23;;;6.70;;
92;SDS011;16232;48.800;9.002;2023-12-14T05:56:02;10.07;;;7.80;;
92;SDS011;16232;48.800;9.002;2023-12-14T05:58:29;10.57;;;8.07;;
92;SDS011;16232;48.800;9.002;2023-12-14T06:00:57;10.00;;;7.87;;
92;SDS011;16232;48.800;9.002;2023-12-14T06:03:24;8.27;;;7.23;;
92;SDS011;16232;48.800;9.002;2023-12-14T06:05:51;5.93;;;5.40;;
92;SDS011;16232;48.800;9.002;2023-12-14T06:08:20;8.17;;;7.00;;
92;SDS011;16232;48.800;9.002;2023-12-14T06:10:48;7.87;;;6.80;;
92;SDS011;16232;48.800;9.002;2023-12-14T06:13:15;7.77;;;6.67;;
92;SDS011;16232;48.800;9.002;2023-12-14T06:15:43;9.33;;;7.37;;
92;SDS011;16232;48.800;9.002;2023-12-14T06:18:10;11.97;;;9.03;;
92;SDS011;16232;48.800;9.002;2023-12-14T06:20:38;8.80;;;7.30;;
92;SDS011;16232;48.800;9.002;2023-12-14T06:23:07;10.80;;;7.80;;
92;SDS011;16232;48.800;9.002;2023-12-14T06:25:35;11.27;;;8.83;;
92;SDS011;16232;48.800;9.002;2023-12-14T06:28:03;11.67;;;8.57;;
92;SDS011;16232;48.800;9.002;2023-12-14T06:30:31;9.87;;;7.30;;
92;SDS011;16232;48.800;9.002;2023-12-14T06:32:58;8.93;;;7.83;;
92;SDS011;16232;48.800;9.002;2023-12-14T06:35:25;9.07;;;7.60;;
92;SDS011;16232;48.800;9.002;2023-12-14T06:37:53;11.07;;;7.13;;
92;SDS011;16232;48.800;9.002;2023-12-14T06:40:20;9.90;;;7.20;;
92;SDS011;16232;48.800;9.002;2023-12-14T06:42:49;12.07;;;8.13;;
92;SDS011;16232;48.800;9.002;2023-12-14T06:45:17;13.30;;;11.30;;
92;SDS011;16232;48.800;9.002;2023-12-14T06:47:44;12.13;;;8.77;;
92;SDS011;16232;48.800;9.002;2023-12-14T06:50:12;16.27;;;9.67;;
92;SDS011;16232;48.800;9.002;2023-12-14T06:52:40;14.20;;;9.07;;
92;SDS011;16232;48.800;9.002;2023-12-14T06:55:07;9.53;;;7.37;;
92;SDS011;16232;48.800;9.002;2023-12-14T06:57:36;8.17;;;6.17;;
92;SDS011;16232;48.800;9.002;2023-12-14T07:00:05;11.67;;;8.10;;
92;SDS011;16232;48.800;9.002;2023-12-14T07:02:33;11.07;;;8.43;;
92;SDS011;16232;48.800;9.002;2023-12-14T07:05:01;8.43;;;7.63;;
92;SDS011;16232;48.800;9.002;2023-12-14T07:07:38;7.83;;;7.03;;
92;SDS011;16232;48.800;9.002;2023-12-14T07:10:16;8.40;;;6.97;;
92;SDS011;16232;48.800;9.002;2023-12-14T07:12:45;7.87;;;6.10;;
92;SDS011;16232;48.800;9.002;2023-12-14T07:15:15;7.00;;;6.30;;
92;SDS011;16232;48.800;9.002;2023-12-14T07:17:43;10.07;;;7.27;;
92;SDS011;16232;48.800;9.002;2023-12-14T07:20:11;7.70;;;6.47;;
92;SDS011;16232;48.800;9.002;2023-12-14T07:22:39;9.93;;;6.90;;
92;SDS011;16232;48.800;9.002;2023-12-14T07:25:07;9.67;;;7.20;;
92;SDS011;16232;48.800;9.002;2023-12-14T07:27:35;7.73;;;6.93;;
92;SDS011;16232;48.800;9.002;2023-12-14T07:30:03;8.33;;;7.37;;
92;SDS011;16232;48.800;9.002;2023-12-14T07:32:32;9.80;;;7.90;;
92;SDS011;16232;48.800;9.002;2023-12-14T07:34:59;9.70;;;7.27;;
92;SDS011;16232;48.800;9.002;2023-12-14T07:37:27;8.43;;;6.53;;
92;SDS011;16232;48.800;9.002;2023-12-14T07:39:54;8.90;;;7.30;;
92;SDS011;16232;48.800;9.002;2023-12-14T07:42:23;10.87;;;7.13;;
92;SDS011;16232;48.800;9.002;2023-12-14T07:44:51;8.20;;;6.73;;
92;SDS011;16232;48.800;9.002;2023-12-14T07:47:19;11.30;;;7.30;;
92;SDS011;16232;48.800;9.002;2023-12-14T07:49:48;8.27;;;7.07;;
92;SDS011;16232;48.800;9.002;2023-12-14T07:52:16;11.77;;;8.87;;
92;SDS011;16232;48.800;9.002;2023-12-14T07:54:43;14.83;;;9.70;;
92;SDS011;16232;48.800;9.002;2023-12-14T07:57:11;11.07;;;7.57;;
92;SDS011;16232;48.800;9.002;2023-12-14T07:59:39;10.90;;;8.47;;
92;SDS011;16232;48.800;9.002;2023-12-14T08:02:07;10.50;;;8.33;;
92;SDS011;16232;48.800;9.002;2023-12-14T08:04:35;10.60;;;7.80;;
92;SDS011;16232;48.800;9.002;2023-12-14T08:07:04;6.87;;;6.17;;
92;SDS011;16232;48.800;9.002;2023-12-14T08:09:31;7.67;;;5.97;;
92;SDS011;16232;48.800;9.002;2023-12-14T08:11:59;6.37;;;5.57;;
92;SDS011;16232;48.800;9.002;2023-12-14T08:14:27;7.57;;;6.67;;
92;SDS011;16232;48.800;9.002;2023-12-14T08:16:55;7.67;;;6.37;;
92;SDS011;16232;48.800;9.002;2023-12-14T08:19:22;8.07;;;7.13;;
92;SDS011;16232;48.800;9.002;2023-12-14T08:21:49;11.03;;;8.73;;
92;SDS011;16232;48.800;9.002;2023-12-14T08:24:18;8.37;;;7.27;;
92;SDS011;16232;48.800;9.002;2023-12-14T08:26:46;12.27;;;9.40;;
92;SDS011;16232;48.800;9.002;2023-12-14T08:29:13;6.67;;;5.93;;
92;SDS011;16232;48.800;9.002;2023-12-14T08:31:41;8.57;;;6.87;;
92;SDS011;16232;48.800;9.002;2023-12-14T08:34:08;9.43;;;7.20;;
92;SDS011;16232;48.800;9.002;2023-12-14T08:36:35;11.00;;;7.63;;
92;SDS011;16232;48.800;9.002;2023-12-14T08:39:03;8.57;;;7.03;;
92;SDS011;16232;48.800;9.002;2023-12-14T08:41:33;9.97;;;8.40;;
92;SDS011;16232;48.800;9.002;2023-12-14T08:44:00;11.87;;;7.70;;
92;SDS011;16232;48.800;9.002;2023-12-14T08:46:28;9.23;;;7.90;;
92;SDS011;16232;48.800;9.002;2023-12-14T08:48:55;10.80;;;7.40;;
92;SDS011;16232;48.800;9.002;2023-12-14T08:51:23;12.97;;;9.27;;
92;SDS011;16232;48.800;9.002;2023-12-14T08:53:52;10.20;;;8.67;;
92;SDS011;16232;48.800;9.002;2023-12-14T08:56:19;9.77;;;7.80;;
92;SDS011;16232;48.800;9.002;2023-12-14T08:58:48;11.47;;;8.47;;
92;SDS011;16232;48.800;9.002;2023-12-14T09:01:18;11.33;;;8.73;;
92;SDS011;16232;48.800;9.002;2023-12-14T09:03:47;9.87;;;8.30;;
92;SDS011;16232;48.800;9.002;2023-12-14T09:06:15;10.93;;;8.97;;
92;SDS011;16232;48.800;9.002;2023-12-14T09:08:43;11.97;;;8.70;;
92;SDS011;16232;48.800;9.002;2023-12-14T09:11:11;12.07;;;9.00;;
92;SDS011;16232;48.800;9.002;2023-12-14T09:13:40;12.83;;;10.57;;
92;SDS011;16232;48.800;9.002;2023-12-14T09:16:09;12.27;;;9.97;;
92;SDS011;16232;48.800;9.002;2023-12-14T09:18:37;10.33;;;8.47;;
92;SDS011;16232;48.800;9.002;2023-12-14T09:21:05;14.50;;;11.33;;
92;SDS011;16232;48.800;9.002;2023-12-14T09:23:32;16.90;;;12.33;;
92;SDS011;16232;48.800;9.002;2023-12-14T09:26:00;18.37;;;12.80;;
92;SDS011;16232;48.800;9.002;2023-12-14T09:28:27;14.60;;;12.23;;
92;SDS011;16232;48.800;9.002;2023-12-14T09:30:54;16.10;;;12.47;;
92;SDS011;16232;48.800;9.002;2023-12-14T09:33:23;15.90;;;11.50;;
92;SDS011;16232;48.800;9.002;2023-12-14T09:35:51;16.03;;;12.63;;
92;SDS011;16232;48.800;9.002;2023-12-14T09:38:18;18.83;;;13.83;;
92;SDS011;16232;48.800;9.002;2023-12-14T09:40:46;18.93;;;13.67;;
92;SDS011;16232;48.800;9.002;2023-12-14T09:43:13;16.00;;;13.13;;
92;SDS011;16232;48.800;9.002;2023-12-14T09:45:41;18.27;;;12.97;;
92;SDS011;16232;48.800;9.002;2023-12-14T09:48:10;15.63;;;12.87;;
92;SDS011;16232;48.800;9.002;2023-12-14T09:50:40;15.40;;;12.20;;
92;SDS011;16232;48.800;9.002;2023-12-14T09:53:08;14.10;;;10.97;;
92;SDS011;16232;48.800;9.002;2023-12-14T09:55:36;15.03;;;12.13;;
92;SDS011;16232;48.800;9.002;2023-12-14T09:58:03;15.53;;;11.60;;
92;SDS011;16232;48.800;9.002;2023-12-14T10:00:35;15.33;;;11.57;;
92;SDS011;16232;48.800;9.002;2023-12-14T10:05:47;14.67;;;10.77;;
92;SDS011;16232;48.800;9.002;2023-12-14T10:08:15;14.40;;;10.03;;
92;SDS011;16232;48.800;9.002;2023-12-14T10:10:42;12.90;;;11.13;;
92;SDS011;16232;48.800;9.002;2023-12-14T10:13:10;13.90;;;11.67;;
92;SDS011;16232;48.800;9.002;2023-12-14T10:15:41;14.40;;;10.33;;
92;SDS011;16232;48.800;9.002;2023-12-14T10:18:08;12.60;;;10.63;;
92;SDS011;16232;48.800;9.002;2023-12-14T10:20:36;11.43;;;10.23;;
92;SDS011;16232;48.800;9.002;2023-12-14T10:23:06;11.60;;;9.70;;
92;SDS011;16232;48.800;9.002;2023-12-14T10:25:35;10.60;;;9.50;;
92;SDS011;16232;48.800;9.002;2023-12-14T10:28:03;11.53;;;8.90;;
92;SDS011;16232;48.800;9.002;2023-12-14T10:30:30;9.67;;;7.90;;
92;SDS011;16232;48.800;9.002;2023-12-14T10:32:58;11.50;;;8.57;;
92;SDS011;16232;48.800;9.002;2023-12-14T10:35:25;13.90;;;9.10;;
92;SDS011;16232;48.800;9.002;2023-12-14T10:37:53;12.67;;;8.60;;
92;SDS011;16232;48.800;9.002;2023-12-14T10:40:24;8.33;;;7.53;;
92;SDS011;16232;48.800;9.002;2023-12-14T10:42:52;9.17;;;6.43;;
92;SDS011;16232;48.800;9.002;2023-12-14T10:45:19;7.17;;;6.23;;
92;SDS011;16232;48.800;9.002;2023-12-14T10:47:48;9.03;;;7.50;;
92;SDS011;16232;48.800;9.002;2023-12-14T10:50:16;9.27;;;7.17;;
92;SDS011;16232;48.800;9.002;2023-12-14T10:52:44;12.40;;;7.67;;
92;SDS011;16232;48.800;9.002;2023-12-14T10:55:15;10.73;;;8.17;;
92;SDS011;16232;48.800;9.002;2023-12-14T10:57:46;10.67;;;7.97;;
92;SDS011;16232;48.800;9.002;2023-12-14T11:00:15;8.70;;;6.87;;
92;SDS011;16232;48.800;9.002;2023-12-14T11:02:45;8.33;;;7.07;;
92;SDS011;16232;48.800;9.002;2023-12-14T11:05:13;9.87;;;7.03;;
92;SDS011;16232;48.800;9.002;2023-12-14T11:07:48;8.07;;;6.17;;
92;SDS011;16232;48.800;9.002;2023-12-14T11:10:19;9.13;;;6.80;;
92;SDS011;16232;48.800;9.002;2023-12-14T11:12:55;6.90;;;6.20;;
92;SDS011;16232;48.800;9.002;2023-12-14T11:15:23;8.13;;;6.67;;
92;SDS011;16232;48.800;9.002;2023-12-14T11:20:47;5.93;;;4.83;;
92;SDS011;16232;48.800;9.002;2023-12-14T11:23:15;6.50;;;4.67;;
92;SDS011;16232;48.800;9.002;2023-12-14T11:25:44;4.93;;;2.80;;
92;SDS011;16232;48.800;9.002;2023-12-14T11:28:16;3.10;;;2.00;;
92;SDS011;16232;48.800;9.002;2023-12-14T11:30:44;2.23;;;1.90;;
92;SDS011;16232;48.800;9.002;2023-12-14T11:33:11;2.73;;;2.20;;
92;SDS011;16232;48.800;9.002;2023-12-14T11:35:39;3.97;;;2.37;;
92;SDS011;16232;48.800;9.002;2023-12-14T11:38:07;2.20;;;2.00;;
92;SDS011;16232;48.800;9.002;2023-12-14T11:40:38;2.73;;;2.40;;
92;SDS011;16232;48.800;9.002;2023-12-14T11:43:06;4.00;;;2.20;;
92;SDS011;16232;48.800;9.002;2023-12-14T11:45:35;3.93;;;2.37;;
92;SDS011;16232;48.800;9.002;2023-12-14T11:48:02;3.13;;;2.33;;
92;SDS011;16232;48.800;9.002;2023-12-14T11:50:31;3.33;;;2.40;;
92;SDS011;16232;48.800;9.002;2023-12-14T11:53:00;2.63;;;2.30;;
92;SDS011;16232;48.800;9.002;2023-12-14T11:55:28;3.50;;;2.40;;
92;SDS011;16232;48.800;9.002;2023-12-14T11:57:56;4.23;;;3.33;;
92;SDS011;16232;48.800;9.002;2023-12-14T12:00:25;3.27;;;2.60;;
92;SDS011;16232;48.800;9.002;2023-12-14T12:03:07;3.57;;;2.50;;
92;SDS011;16232;48.800;9.002;2023-12-14T12:05:35;2.60;;;2.37;;
92;SDS011;16232;48.800;9.002;2023-12-14T12:08:03;2.50;;;2.07;;
92;SDS011;16232;48.800;9.002;2023-12-14T12:10:31;2.43;;;2.03;;
92;SDS011;16232;48.800;9.002;2023-12-14T12:12:58;3.83;;;2.70;;
92;SDS011;16232;48.800;9.002;2023-12-14T12:15:26;4.20;;;2.70;;
92;SDS011;16232;48.800;9.002;2023-12-14T12:17:53;3.97;;;2.50;;
92;SDS011;16232;48.800;9.002;2023-12-14T12:20:22;4.90;;;2.70;;
92;SDS011;16232;48.800;9.002;2023-12-14T12:22:51;5.17;;;3.37;;
92;SDS011;16232;48.800;9.002;2023-12-14T12:25:19;3.90;;;3.10;;
92;SDS011;16232;48.800;9.002;2023-12-14T12:27:48;3.27;;;2.90;;
92;SDS011;16232;48.800;9.002;2023-12-14T12:30:15;4.57;;;3.20;;
92;SDS011;16232;48.800;9.002;2023-12-14T12:32:43;3.83;;;3.20;;
92;SDS011;16232;48.800;9.002;2023-12-14T12:35:10;4.47;;;3.30;;
92;SDS011;16232;48.800;9.002;2023-12-14T12:37:40;7.70;;;4.07;;
92;SDS011;16232;48.800;9.002;2023-12-14T12:40:08;4.33;;;3.20;;
92;SDS011;16232;48.800;9.002;2023-12-14T12:42:35;5.40;;;3.53;;
92;SDS011;16232;48.800;9.002;2023-12-14T12:45:03;4.57;;;3.77;;
92;SDS011;16232;48.800;9.002;2023-12-14T12:47:31;6.23;;;5.00;;
92;SDS011;16232;48.800;9.002;2023-12-14T12:49:59;7.43;;;5.03;;
92;SDS011;16232;48.800;9.002;2023-12-14T12:52:26;6.70;;;4.40;;
92;SDS011;16232;48.800;9.002;2023-12-14T12:54:55;7.60;;;5.27;;
92;SDS011;16232;48.800;9.002;2023-12-14T12:57:23;8.27;;;4.47;;
92;SDS011;16232;48.800;9.002;2023-12-14T12:59:50;7.57;;;4.90;;
92;SDS011;16232;48.800;9.002;2023-12-14T13:02:18;6.03;;;4.57;;
92;SDS011;16232;48.800;9.002;2023-12-14T13:04:45;6.63;;;4.97;;
92;SDS011;16232;48.800;9.002;2023-12-14T13:07:13;4.80;;;4.17;;
92;SDS011;16232;48.800;9.002;2023-12-14T13:09:40;8.47;;;4.33;;
92;SDS011;16232;48.800;9.002;2023-12-14T13:12:10;6.60;;;4.50;;
92;SDS011;16232;48.800;9.002;2023-12-14T13:14:37;5.03;;;3.80;;
92;SDS011;16232;48.800;9.002;2023-12-14T13:17:05;5.90;;;3.73;;
92;SDS011;16232;48.800;9.002;2023-12-14T13:19:32;6.60;;;5.30;;
92;SDS011;16232;48.800;9.002;2023-12-14T13:22:00;7.73;;;4.53;;
92;SDS011;16232;48.800;9.002;2023-12-14T13:24:27;6.83;;;4.27;;
92;SDS011;16232;48.800;9.002;2023-12-14T13:26:55;4.40;;;3.90;;
92;SDS011;16232;48.800;9.002;2023-12-14T13:29:24;6.17;;;4.07;;
92;SDS011;16232;48.800;9.002;2023-12-14T13:31:52;4.20;;;3.00;;
92;SDS011;16232;48.800;9.002;2023-12-14T13:34:21;4.97;;;3.40;;
92;SDS011;16232;48.800;9.002;2023-12-14T13:36:49;4.33;;;3.07;;
92;SDS011;16232;48.800;9.002;2023-12-14T13:39:20;4.50;;;3.57;;
92;SDS011;16232;48.800;9.002;2023-12-14T13:41:50;3.83;;;3.07;;
92;SDS011;16232;48.800;9.002;2023-12-14T13:44:17;9.07;;;4.30;;
92;SDS011;16232;48.800;9.002;2023-12-14T13:46:46;5.37;;;4.17;;
92;SDS011;16232;48.800;9.002;2023-12-14T13:49:14;5.67;;;4.27;;
92;SDS011;16232;48.800;9.002;2023-12-14T13:51:41;6.60;;;5.10;;
92;SDS011;16232;48.800;9.002;2023-12-14T13:54:09;8.13;;;4.10;;
92;SDS011;16232;48.800;9.002;2023-12-14T13:56:36;7.17;;;4.60;;
92;SDS011;16232;48.800;9.002;2023-12-14T13:59:04;6.87;;;5.13;;
92;SDS011;16232;48.800;9.002;2023-12-14T14:01:31;6.23;;;5.30;;
92;SDS011;16232;48.800;9.002;2023-12-14T14:04:00;11.23;;;6.97;;
92;SDS011;16232;48.800;9.002;2023-12-14T14:06:28;8.47;;;5.67;;
92;SDS011;16232;48.800;9.002;2023-12-14T14:08:56;11.90;;;7.33;;
92;SDS011;16232;48.800;9.002;2023-12-14T14:11:23;10.63;;;7.30;;
92;SDS011;16232;48.800;9.002;2023-12-14T14:13:51;14.13;;;10.33;;
92;SDS011;16232;48.800;9.002;2023-12-14T14:16:18;13.83;;;9.80;;
92;SDS011;16232;48.800;9.002;2023-12-14T14:18:46;19.63;;;13.27;;
92;SDS011;16232;48.800;9.002;2023-12-14T14:21:15;14.90;;;10.47;;
92;SDS011;16232;48.800;9.002;2023-12-14T14:23:42;15.93;;;11.10;;
92;SDS011;16232;48.800;9.002;2023-12-14T14:26:10;12.47;;;9.80;;
92;SDS011;16232;48.800;9.002;2023-12-14T14:28:37;15.87;;;10.60;;
92;SDS011;16232;48.800;9.002;2023-12-14T14:31:05;12.63;;;9.07;;
92;SDS011;16232;48.800;9.002;2023-12-14T14:33:32;12.57;;;9.20;;
92;SDS011;16232;48.800;9.002;2023-12-14T14:36:00;11.80;;;9.07;;
92;SDS011;16232;48.800;9.002;2023-12-14T14:38:31;13.00;;;9.00;;
92;SDS011;16232;48.800;9.002;2023-12-14T14:40:59;11.10;;;9.07;;
92;SDS011;16232;48.800;9.002;2023-12-14T14:43:27;11.83;;;8.70;;
92;SDS011;16232;48.800;9.002;2023-12-14T14:45:55;13.97;;;9.77;;
92;SDS011;16232;48.800;9.002;2023-12-14T14:48:23;14.47;;;9.70;;
92;SDS011;16232;48.800;9.002;2023-12-14T14:50:51;13.17;;;9.33;;
92;SDS011;16232;48.800;9.002;2023-12-14T14:53:19;15.40;;;10.00;;
92;SDS011;16232;48.800;9.002;2023-12-14T14:55:49;16.37;;;10.67;;
92;SDS011;16232;48.800;9.002;2023-12-14T14:58:21;15.47;;;10.87;;
92;SDS011;16232;48.800;9.002;2023-12-14T15:00:48;15.97;;;11.50;;
92;SDS011;16232;48.800;9.002;2023-12-14T15:03:16;16.17;;;12.17;;
92;SDS011;16232;48.800;9.002;2023-12-14T15:05:45;14.13;;;10.53;;
92;SDS011;16232;48.800;9.002;2023-12-14T15:08:13;15.57;;;11.20;;
92;SDS011;16232;48.800;9.002;2023-12-14T15:10:41;21.00;;;13.03;;
92;SDS011;16232;48.800;9.002;2023-12-14T15:13:09;21.73;;;13.47;;
92;SDS011;16232;48.800;9.002;2023-12-14T15:15:37;17.23;;;10.87;;
92;SDS011;16232;48.800;9.002;2023-12-14T15:18:05;22.63;;;13.27;;
92;SDS011;16232;48.800;9.002;2023-12-14T15:20:32;18.47;;;10.90;;
92;SDS011;16232;48.800;9.002;2023-12-14T15:23:01;18.43;;;10.87;;
92;SDS011;16232;48.800;9.002;2023-12-14T15:25:30;15.90;;;10.13;;
92;SDS011;16232;48.800;9.002;2023-12-14T15:27:58;16.70;;;10.67;;
92;SDS011;16232;48.800;9.002;2023-12-14T15:30:27;14.67;;;9.83;;
92;SDS011;16232;48.800;9.002;2023-12-14T15:32:55;14.87;;;9.60;;
92;SDS011;16232;48.800;9.002;2023-12-14T15:35:23;15.43;;;9.67;;